sensor_id;sensor_type;location;lat;lon;timestamp;pressure;altitude;pressure_sealevel;temperature;humidity
2000;BME280;1001;48.87406500;9.59633600;2023-02-18T00:01:21;95928.25;;;11.05;98.03
2000;BME280;1001;48.87406500;9.59633600;2023-02-18T00:03:48;95923.84;;;10.99;97.91
2000;BME280;1001;48.87406500;9.59633600;2023-02-18T00:06:17;95928.09;;;11.00;97.84
2000;BME280;1001;48.87406500;9.59633600;2023-02-18T00:08:45;95930.25;;;11.03;97.66
2000;BME280;1001;48.87406500;9.59633600;2023-02-18T00:11:13;95929.31;;;10.97;98.23
2000;BME280;1001;48.87406500;9.59633600;2023-02-18T00:13:40;95927.28;;;10.99;98.58
2000;BME280;1001;48.87406500;9.59633600;2023-02-18T00:16:09;95917.84;;;10.91;98.99
2000;BME280;1001;48.87406500;9.59633600;2023-02-18T00:18:36;95925.06;;;10.96;99.07
2000;BME280;1001;48.87406500;9.59633600;2023-02-18T00:21:04;95911.22;;;10.89;99.39
2000;BME280;1001;48.87406500;9.59633600;2023-02-18T00:23:31;95916.28;;;10.90;99.72
2000;BME280;1001;48.87406500;9.59633600;2023-02-18T00:25:59;95910.88;;;10.85;99.74
2000;BME280;1001;48.87406500;9.59633600;2023-02-18T00:28:26;95904.41;;;10.88;99.98
2000;BME280;1001;48.87406500;9.59633600;2023-02-18T00:30:53;95907.66;;;10.83;100.00
2000;BME280;1001;48.87406500;9.59633600;2023-02-18T00:33:20;95904.66;;;10.80;99.79
2000;BME280;1001;48.87406500;9.59633600;2023-02-18T00:35:47;95906.44;;;10.86;99.89
2000;BME280;1001;48.87406500;9.59633600;2023-02-18T00:38:14;95914.44;;;10.91;99.86
2000;BME280;1001;48.87406500;9.59633600;2023-02-18T00:40:40;95894.59;;;10.77;99.88
2000;BME280;1001;48.87406500;9.59633600;2023-02-18T00:43:09;95900.84;;;10.76;99.82
2000;BME280;1001;48.87406500;9.59633600;2023-02-18T00:45:35;95901.81;;;10.81;99.54
2000;BME280;1001;48.87406500;9.59633600;2023-02-18T00:48:02;95900.19;;;10.87;99.16
2000;BME280;1001;48.87406500;9.59633600;2023-02-18T00:50:29;95886.34;;;10.80;98.99
2000;BME280;1001;48.87406500;9.59633600;2023-02-18T00:52:55;95893.13;;;10.87;99.02
2000;BME280;1001;48.87406500;9.59633600;2023-02-18T00:55:22;95890.31;;;10.89;98.93
2000;BME280;1001;48.87406500;9.59633600;2023-02-18T00:57:51;95885.53;;;10.79;98.38
2000;BME280;1001;48.87406500;9.59633600;2023-02-18T01:00:19;95892.50;;;10.92;98.17
2000;BME280;1001;48.87406500;9.59633600;2023-02-18T01:02:46;95902.97;;;10.92;98.04
2000;BME280;1001;48.87406500;9.59633600;2023-02-18T01:05:18;95907.63;;;10.90;97.92
2000;BME280;1001;48.87406500;9.59633600;2023-02-18T01:07:44;95908.88;;;10.81;98.35
2000;BME280;1001;48.87406500;9.59633600;2023-02-18T01:10:11;95919.94;;;10.83;98.19
2000;BME280;1001;48.87406500;9.59633600;2023-02-18T01:12:38;95905.00;;;10.90;97.81
2000;BME280;1001;48.87406500;9.59633600;2023-02-18T01:15:06;95906.44;;;10.86;98.13
2000;BME280;1001;48.87406500;9.59633600;2023-02-18T01:17:34;95906.41;;;10.92;97.70
2000;BME280;1001;48.87406500;9.59633600;2023-02-18T01:20:01;95897.34;;;10.88;97.63
2000;BME280;1001;48.87406500;9.59633600;2023-02-18T01:22:27;95901.16;;;10.92;96.70
2000;BME280;1001;48.87406500;9.59633600;2023-02-18T01:24:55;95902.13;;;10.98;97.30
2000;BME280;1001;48.87406500;9.59633600;2023-02-18T01:27:21;95898.97;;;10.89;97.81
2000;BME280;1001;48.87406500;9.59633600;2023-02-18T01:29:48;95894.72;;;10.88;97.81
2000;BME280;1001;48.87406500;9.59633600;2023-02-18T01:32:15;95902.44;;;10.83;97.60
2000;BME280;1001;48.87406500;9.59633600;2023-02-18T01:34:43;95904.19;;;10.89;97.16
2000;BME280;1001;48.87406500;9.59633600;2023-02-18T01:37:09;95892.91;;;10.89;97.04
2000;BME280;1001;48.87406500;9.59633600;2023-02-18T01:39:36;95897.72;;;10.92;97.00
2000;BME280;1001;48.87406500;9.59633600;2023-02-18T01:42:03;95898.72;;;10.98;97.15
2000;BME280;1001;48.87406500;9.59633600;2023-02-18T01:44:32;95893.72;;;10.89;97.00
2000;BME280;1001;48.87406500;9.59633600;2023-02-18T01:46:59;95897.72;;;10.92;96.62
2000;BME280;1001;48.87406500;9.59633600;2023-02-18T01:49:27;95899.13;;;10.94;96.80
2000;BME280;1001;48.87406500;9.59633600;2023-02-18T01:51:59;95893.09;;;10.94;96.70
2000;BME280;1001;48.87406500;9.59633600;2023-02-18T01:54:29;95897.97;;;10.90;97.07
2000;BME280;1001;48.87406500;9.59633600;2023-02-18T01:57:00;95889.84;;;10.99;96.82
2000;BME280;1001;48.87406500;9.59633600;2023-02-18T01:59:31;95892.50;;;10.92;96.80
2000;BME280;1001;48.87406500;9.59633600;2023-02-18T02:01:59;95890.09;;;10.90;97.27
2000;BME280;1001;48.87406500;9.59633600;2023-02-18T02:04:26;95880.06;;;10.87;96.91
2000;BME280;1001;48.87406500;9.59633600;2023-02-18T02:06:53;95891.09;;;10.89;97.45
2000;BME280;1001;48.87406500;9.59633600;2023-02-18T02:09:23;95877.50;;;10.81;97.89
2000;BME280;1001;48.87406500;9.59633600;2023-02-18T02:12:05;95877.38;;;10.94;97.26
2000;BME280;1001;48.87406500;9.59633600;2023-02-18T02:14:50;95873.19;;;10.93;97.20
2000;BME280;1001;48.87406500;9.59633600;2023-02-18T02:17:27;95875.00;;;10.92;96.90
2000;BME280;1001;48.87406500;9.59633600;2023-02-18T02:23:23;95880.66;;;10.89;97.25
2000;BME280;1001;48.87406500;9.59633600;2023-02-18T02:32:12;95878.25;;;10.88;97.56
2000;BME280;1001;48.87406500;9.59633600;2023-02-18T02:34:51;95865.19;;;10.81;97.76
2000;BME280;1001;48.87406500;9.59633600;2023-02-18T02:37:28;95861.63;;;10.76;97.68
2000;BME280;1001;48.87406500;9.59633600;2023-02-18T02:40:10;95857.19;;;10.76;97.96
2000;BME280;1001;48.87406500;9.59633600;2023-02-18T02:42:47;95863.78;;;10.79;97.99
2000;BME280;1001;48.87406500;9.59633600;2023-02-18T02:45:29;95848.94;;;10.73;97.57
2000;BME280;1001;48.87406500;9.59633600;2023-02-18T02:48:03;95859.19;;;10.81;97.75
2000;BME280;1001;48.87406500;9.59633600;2023-02-18T02:50:40;95858.19;;;10.75;97.89
2000;BME280;1001;48.87406500;9.59633600;2023-02-18T02:53:13;95851.97;;;10.76;98.05
2000;BME280;1001;48.87406500;9.59633600;2023-02-18T02:55:42;95855.56;;;10.75;98.06
2000;BME280;1001;48.87406500;9.59633600;2023-02-18T02:58:13;95845.34;;;10.67;98.52
2000;BME280;1001;48.87406500;9.59633600;2023-02-18T03:00:49;95829.53;;;10.62;98.48
2000;BME280;1001;48.87406500;9.59633600;2023-02-18T03:03:38;95845.75;;;10.71;98.73
2000;BME280;1001;48.87406500;9.59633600;2023-02-18T03:06:22;95835.69;;;10.68;98.69
2000;BME280;1001;48.87406500;9.59633600;2023-02-18T03:08:58;95841.34;;;10.65;98.50
2000;BME280;1001;48.87406500;9.59633600;2023-02-18T03:11:34;95831.91;;;10.64;98.41
2000;BME280;1001;48.87406500;9.59633600;2023-02-18T03:14:09;95835.50;;;10.69;98.57
2000;BME280;1001;48.87406500;9.59633600;2023-02-18T03:16:46;95833.50;;;10.65;98.60
2000;BME280;1001;48.87406500;9.59633600;2023-02-18T03:19:19;95830.28;;;10.63;98.69
2000;BME280;1001;48.87406500;9.59633600;2023-02-18T03:21:55;95819.00;;;10.69;98.30
2000;BME280;1001;48.87406500;9.59633600;2023-02-18T03:24:26;95817.22;;;10.63;98.85
2000;BME280;1001;48.87406500;9.59633600;2023-02-18T03:26:57;95829.13;;;10.59;98.57
2000;BME280;1001;48.87406500;9.59633600;2023-02-18T03:29:25;95817.66;;;10.60;98.37
2000;BME280;1001;48.87406500;9.59633600;2023-02-18T03:31:55;95808.44;;;10.57;98.36
2000;BME280;1001;48.87406500;9.59633600;2023-02-18T03:34:25;95822.50;;;10.56;97.70
2000;BME280;1001;48.87406500;9.59633600;2023-02-18T03:36:58;95815.41;;;10.63;97.59
2000;BME280;1001;48.87406500;9.59633600;2023-02-18T03:39:27;95817.81;;;10.65;97.48
2000;BME280;1001;48.87406500;9.59633600;2023-02-18T03:41:55;95829.28;;;10.64;97.93
2000;BME280;1001;48.87406500;9.59633600;2023-02-18T03:44:23;95826.47;;;10.65;98.11
2000;BME280;1001;48.87406500;9.59633600;2023-02-18T03:46:50;95826.09;;;10.62;97.76
2000;BME280;1001;48.87406500;9.59633600;2023-02-18T03:49:17;95827.69;;;10.63;97.96
2000;BME280;1001;48.87406500;9.59633600;2023-02-18T03:51:43;95821.66;;;10.62;98.16
2000;BME280;1001;48.87406500;9.59633600;2023-02-18T03:54:11;95831.56;;;10.54;98.24
2000;BME280;1001;48.87406500;9.59633600;2023-02-18T03:56:39;95821.91;;;10.54;98.23
2000;BME280;1001;48.87406500;9.59633600;2023-02-18T03:59:07;95826.09;;;10.62;98.14
2000;BME280;1001;48.87406500;9.59633600;2023-02-18T04:01:33;95805.81;;;10.51;98.35
2000;BME280;1001;48.87406500;9.59633600;2023-02-18T04:04:01;95817.50;;;10.55;98.26
2000;BME280;1001;48.87406500;9.59633600;2023-02-18T04:06:28;95819.72;;;10.51;98.59
2000;BME280;1001;48.87406500;9.59633600;2023-02-18T04:08:55;95820.69;;;10.57;98.09
2000;BME280;1001;48.87406500;9.59633600;2023-02-18T04:11:23;95821.38;;;10.46;98.48
2000;BME280;1001;48.87406500;9.59633600;2023-02-18T04:13:49;95817.69;;;10.53;98.35
2000;BME280;1001;48.87406500;9.59633600;2023-02-18T04:16:16;95807.22;;;10.53;98.73
2000;BME280;1001;48.87406500;9.59633600;2023-02-18T04:18:43;95800.59;;;10.51;99.00
2000;BME280;1001;48.87406500;9.59633600;2023-02-18T04:21:09;95800.66;;;10.44;98.54
2000;BME280;1001;48.87406500;9.59633600;2023-02-18T04:23:38;95800.00;;;10.49;98.79
2000;BME280;1001;48.87406500;9.59633600;2023-02-18T04:26:04;95793.59;;;10.45;98.84
2000;BME280;1001;48.87406500;9.59633600;2023-02-18T04:28:32;95798.78;;;10.51;98.77
2000;BME280;1001;48.87406500;9.59633600;2023-02-18T04:31:01;95801.63;;;10.50;98.77
2000;BME280;1001;48.87406500;9.59633600;2023-02-18T04:33:28;95797.22;;;10.50;98.46
2000;BME280;1001;48.87406500;9.59633600;2023-02-18T04:35:54;95793.38;;;10.46;98.83
2000;BME280;1001;48.87406500;9.59633600;2023-02-18T04:38:21;95783.75;;;10.47;98.42
2000;BME280;1001;48.87406500;9.59633600;2023-02-18T04:40:48;95797.63;;;10.47;98.77
2000;BME280;1001;48.87406500;9.59633600;2023-02-18T04:43:14;95806.63;;;10.51;98.47
2000;BME280;1001;48.87406500;9.59633600;2023-02-18T04:45:42;95791.22;;;10.43;98.11
2000;BME280;1001;48.87406500;9.59633600;2023-02-18T04:48:09;95789.78;;;10.47;98.19
2000;BME280;1001;48.87406500;9.59633600;2023-02-18T04:50:35;95801.41;;;10.51;98.21
2000;BME280;1001;48.87406500;9.59633600;2023-02-18T04:53:02;95799.25;;;10.42;98.65
2000;BME280;1001;48.87406500;9.59633600;2023-02-18T04:55:29;95792.38;;;10.47;98.03
2000;BME280;1001;48.87406500;9.59633600;2023-02-18T04:57:55;95790.59;;;10.48;97.85
2000;BME280;1001;48.87406500;9.59633600;2023-02-18T05:00:22;95802.44;;;10.50;97.95
2000;BME280;1001;48.87406500;9.59633600;2023-02-18T05:02:50;95809.06;;;10.53;97.80
2000;BME280;1001;48.87406500;9.59633600;2023-02-18T05:05:17;95801.63;;;10.50;97.34
2000;BME280;1001;48.87406500;9.59633600;2023-02-18T05:07:44;95805.81;;;10.51;97.33
2000;BME280;1001;48.87406500;9.59633600;2023-02-18T05:10:14;95812.91;;;10.44;97.66
2000;BME280;1001;48.87406500;9.59633600;2023-02-18T05:12:41;95804.28;;;10.43;97.64
2000;BME280;1001;48.87406500;9.59633600;2023-02-18T05:15:08;95811.31;;;10.43;98.33
2000;BME280;1001;48.87406500;9.59633600;2023-02-18T05:17:34;95811.31;;;10.43;98.02
2000;BME280;1001;48.87406500;9.59633600;2023-02-18T05:20:03;95802.72;;;10.36;97.31
2000;BME280;1001;48.87406500;9.59633600;2023-02-18T05:22:29;95812.31;;;10.42;97.26
2000;BME280;1001;48.87406500;9.59633600;2023-02-18T05:24:57;95815.75;;;10.42;97.39
2000;BME280;1001;48.87406500;9.59633600;2023-02-18T05:27:24;95805.88;;;10.44;96.80
2000;BME280;1001;48.87406500;9.59633600;2023-02-18T05:29:51;95804.06;;;10.45;96.92
2000;BME280;1001;48.87406500;9.59633600;2023-02-18T05:32:18;95784.59;;;10.34;96.89
2000;BME280;1001;48.87406500;9.59633600;2023-02-18T05:34:44;95797.44;;;10.42;97.00
2000;BME280;1001;48.87406500;9.59633600;2023-02-18T05:37:12;95795.25;;;10.39;96.82
2000;BME280;1001;48.87406500;9.59633600;2023-02-18T05:39:39;95795.81;;;10.41;97.20
2000;BME280;1001;48.87406500;9.59633600;2023-02-18T05:42:06;95804.47;;;10.42;97.29
2000;BME280;1001;48.87406500;9.59633600;2023-02-18T05:44:33;95810.75;;;10.34;96.97
2000;BME280;1001;48.87406500;9.59633600;2023-02-18T05:47:05;95808.75;;;10.36;97.32
2000;BME280;1001;48.87406500;9.59633600;2023-02-18T05:49:33;95801.09;;;10.35;97.24
2000;BME280;1001;48.87406500;9.59633600;2023-02-18T05:52:00;95798.75;;;10.27;97.89
2000;BME280;1001;48.87406500;9.59633600;2023-02-18T05:54:29;95803.13;;;10.33;97.95
2000;BME280;1001;48.87406500;9.59633600;2023-02-18T05:56:56;95797.91;;;10.33;97.96
2000;BME280;1001;48.87406500;9.59633600;2023-02-18T05:59:23;95800.16;;;10.29;98.08
2000;BME280;1001;48.87406500;9.59633600;2023-02-18T06:01:50;95795.91;;;10.28;98.05
2000;BME280;1001;48.87406500;9.59633600;2023-02-18T06:04:16;95795.34;;;10.26;98.23
2000;BME280;1001;48.87406500;9.59633600;2023-02-18T06:06:43;95790.91;;;10.20;98.13
2000;BME280;1001;48.87406500;9.59633600;2023-02-18T06:09:10;95798.00;;;10.19;99.02
2000;BME280;1001;48.87406500;9.59633600;2023-02-18T06:11:38;95793.53;;;10.20;98.80
2000;BME280;1001;48.87406500;9.59633600;2023-02-18T06:14:05;95775.88;;;10.15;98.47
2000;BME280;1001;48.87406500;9.59633600;2023-02-18T06:16:32;95795.38;;;10.19;98.62
2000;BME280;1001;48.87406500;9.59633600;2023-02-18T06:18:59;95781.91;;;10.16;98.69
2000;BME280;1001;48.87406500;9.59633600;2023-02-18T06:21:25;95804.78;;;10.20;98.24
2000;BME280;1001;48.87406500;9.59633600;2023-02-18T06:23:52;95811.84;;;10.20;98.91
2000;BME280;1001;48.87406500;9.59633600;2023-02-18T06:26:19;95807.41;;;10.20;98.88
2000;BME280;1001;48.87406500;9.59633600;2023-02-18T06:28:47;95807.03;;;10.17;98.85
2000;BME280;1001;48.87406500;9.59633600;2023-02-18T06:31:13;95812.00;;;10.25;98.75
2000;BME280;1001;48.87406500;9.59633600;2023-02-18T06:33:40;95805.22;;;10.17;99.02
2000;BME280;1001;48.87406500;9.59633600;2023-02-18T06:36:08;95795.59;;;10.11;99.32
2000;BME280;1001;48.87406500;9.59633600;2023-02-18T06:38:37;95812.28;;;10.17;99.57
2000;BME280;1001;48.87406500;9.59633600;2023-02-18T06:41:04;95802.00;;;10.15;99.41
2000;BME280;1001;48.87406500;9.59633600;2023-02-18T06:43:31;95805.84;;;10.13;99.47
2000;BME280;1001;48.87406500;9.59633600;2023-02-18T06:45:59;95814.28;;;10.15;99.74
2000;BME280;1001;48.87406500;9.59633600;2023-02-18T06:48:26;95809.06;;;10.15;99.71
2000;BME280;1001;48.87406500;9.59633600;2023-02-18T06:50:53;95803.59;;;10.23;99.71
2000;BME280;1001;48.87406500;9.59633600;2023-02-18T06:53:19;95803.44;;;10.11;99.65
2000;BME280;1001;48.87406500;9.59633600;2023-02-18T06:55:46;95793.38;;;10.15;99.59
2000;BME280;1001;48.87406500;9.59633600;2023-02-18T06:58:14;95796.97;;;10.20;99.74
2000;BME280;1001;48.87406500;9.59633600;2023-02-18T07:00:42;95791.78;;;10.14;99.64
2000;BME280;1001;48.87406500;9.59633600;2023-02-18T07:03:11;95784.09;;;10.19;100.00
2000;BME280;1001;48.87406500;9.59633600;2023-02-18T07:05:38;95782.09;;;10.21;99.49
2000;BME280;1001;48.87406500;9.59633600;2023-02-18T07:08:05;95777.66;;;10.21;99.47
2000;BME280;1001;48.87406500;9.59633600;2023-02-18T07:10:32;95784.47;;;10.22;99.93
2000;BME280;1001;48.87406500;9.59633600;2023-02-18T07:12:58;95784.69;;;10.21;99.78
2000;BME280;1001;48.87406500;9.59633600;2023-02-18T07:15:25;95795.50;;;10.31;99.50
2000;BME280;1001;48.87406500;9.59633600;2023-02-18T07:17:52;95800.34;;;10.27;99.85
2000;BME280;1001;48.87406500;9.59633600;2023-02-18T07:20:21;95795.50;;;10.31;99.30
2000;BME280;1001;48.87406500;9.59633600;2023-02-18T07:22:48;95789.50;;;10.24;99.72
2000;BME280;1001;48.87406500;9.59633600;2023-02-18T07:25:15;95787.06;;;10.29;99.54
2000;BME280;1001;48.87406500;9.59633600;2023-02-18T07:27:42;95787.84;;;10.36;99.22
2000;BME280;1001;48.87406500;9.59633600;2023-02-18T07:30:09;95771.75;;;10.33;98.90
2000;BME280;1001;48.87406500;9.59633600;2023-02-18T07:32:36;95774.50;;;10.44;98.48
2000;BME280;1001;48.87406500;9.59633600;2023-02-18T07:35:03;95769.66;;;10.48;98.67
2000;BME280;1001;48.87406500;9.59633600;2023-02-18T07:37:32;95766.81;;;10.49;98.50
2000;BME280;1001;48.87406500;9.59633600;2023-02-18T07:39:58;95764.44;;;10.48;98.60
2000;BME280;1001;48.87406500;9.59633600;2023-02-18T07:42:25;95764.59;;;10.53;98.19
2000;BME280;1001;48.87406500;9.59633600;2023-02-18T07:44:51;95763.53;;;10.60;97.58
2000;BME280;1001;48.87406500;9.59633600;2023-02-18T07:47:18;95760.31;;;10.58;97.80
2000;BME280;1001;48.87406500;9.59633600;2023-02-18T07:49:46;95760.88;;;10.67;97.21
2000;BME280;1001;48.87406500;9.59633600;2023-02-18T07:52:13;95750.41;;;10.67;97.14
2000;BME280;1001;48.87406500;9.59633600;2023-02-18T07:54:41;95747.19;;;10.65;97.19
2000;BME280;1001;48.87406500;9.59633600;2023-02-18T07:57:08;95756.34;;;10.80;96.29
2000;BME280;1001;48.87406500;9.59633600;2023-02-18T07:59:35;95743.34;;;10.67;96.16
2000;BME280;1001;48.87406500;9.59633600;2023-02-18T08:02:03;95751.94;;;10.74;96.29
2000;BME280;1001;48.87406500;9.59633600;2023-02-18T08:04:32;95757.19;;;10.74;95.90
2000;BME280;1001;48.87406500;9.59633600;2023-02-18T08:06:58;95744.97;;;10.68;95.71
2000;BME280;1001;48.87406500;9.59633600;2023-02-18T08:09:25;95750.38;;;10.73;96.18
2000;BME280;1001;48.87406500;9.59633600;2023-02-18T08:11:53;95751.00;;;10.69;96.28
2000;BME280;1001;48.87406500;9.59633600;2023-02-18T08:14:20;95756.13;;;10.82;95.75
2000;BME280;1001;48.87406500;9.59633600;2023-02-18T08:16:46;95753.13;;;10.78;95.61
2000;BME280;1001;48.87406500;9.59633600;2023-02-18T08:19:13;95751.91;;;10.81;95.83
2000;BME280;1001;48.87406500;9.59633600;2023-02-18T08:21:39;95754.25;;;10.89;95.99
2000;BME280;1001;48.87406500;9.59633600;2023-02-18T08:24:06;95752.66;;;10.88;95.71
2000;BME280;1001;48.87406500;9.59633600;2023-02-18T08:26:33;95749.66;;;10.84;95.34
2000;BME280;1001;48.87406500;9.59633600;2023-02-18T08:29:01;95759.38;;;11.02;95.14
2000;BME280;1001;48.87406500;9.59633600;2023-02-18T08:31:29;95761.50;;;11.12;94.95
2000;BME280;1001;48.87406500;9.59633600;2023-02-18T08:33:57;95763.31;;;11.11;94.25
2000;BME280;1001;48.87406500;9.59633600;2023-02-18T08:36:25;95751.13;;;11.23;93.85
2000;BME280;1001;48.87406500;9.59633600;2023-02-18T08:38:55;95755.22;;;11.37;92.72
2000;BME280;1001;48.87406500;9.59633600;2023-02-18T08:41:22;95746.19;;;11.51;92.47
2000;BME280;1001;48.87406500;9.59633600;2023-02-18T08:43:48;95743.78;;;11.50;92.25
2000;BME280;1001;48.87406500;9.59633600;2023-02-18T08:46:17;95749.63;;;11.52;92.10
2000;BME280;1001;48.87406500;9.59633600;2023-02-18T08:48:44;95753.00;;;11.52;92.09
2000;BME280;1001;48.87406500;9.59633600;2023-02-18T08:51:12;95746.78;;;11.53;91.21
2000;BME280;1001;48.87406500;9.59633600;2023-02-18T08:53:39;95747.88;;;11.64;91.21
2000;BME280;1001;48.87406500;9.59633600;2023-02-18T08:56:07;95725.88;;;11.65;91.00
2000;BME280;1001;48.87406500;9.59633600;2023-02-18T08:58:34;95739.22;;;11.63;90.92
2000;BME280;1001;48.87406500;9.59633600;2023-02-18T09:01:02;95732.81;;;11.78;90.95
2000;BME280;1001;48.87406500;9.59633600;2023-02-18T09:03:31;95732.91;;;11.71;90.49
2000;BME280;1001;48.87406500;9.59633600;2023-02-18T09:05:58;95744.31;;;11.77;90.99
2000;BME280;1001;48.87406500;9.59633600;2023-02-18T09:08:26;95737.25;;;11.77;90.07
2000;BME280;1001;48.87406500;9.59633600;2023-02-18T09:10:54;95735.59;;;11.83;91.07
2000;BME280;1001;48.87406500;9.59633600;2023-02-18T09:13:21;95737.06;;;12.08;89.47
2000;BME280;1001;48.87406500;9.59633600;2023-02-18T09:15:55;95726.78;;;12.07;88.50
2000;BME280;1001;48.87406500;9.59633600;2023-02-18T09:18:21;95732.31;;;12.17;88.36
2000;BME280;1001;48.87406500;9.59633600;2023-02-18T09:20:49;95734.78;;;12.12;88.58
2000;BME280;1001;48.87406500;9.59633600;2023-02-18T09:23:16;95721.72;;;11.94;88.18
2000;BME280;1001;48.87406500;9.59633600;2023-02-18T09:25:43;95727.78;;;11.94;89.28
2000;BME280;1001;48.87406500;9.59633600;2023-02-18T09:28:09;95727.88;;;12.17;87.92
2000;BME280;1001;48.87406500;9.59633600;2023-02-18T09:30:38;95716.09;;;12.08;87.57
2000;BME280;1001;48.87406500;9.59633600;2023-02-18T09:33:04;95727.75;;;12.24;87.88
2000;BME280;1001;48.87406500;9.59633600;2023-02-18T09:35:31;95718.66;;;12.26;87.23
2000;BME280;1001;48.87406500;9.59633600;2023-02-18T09:37:59;95718.78;;;12.32;87.14
2000;BME280;1001;48.87406500;9.59633600;2023-02-18T09:40:30;95711.19;;;12.42;86.11
2000;BME280;1001;48.87406500;9.59633600;2023-02-18T09:43:01;95722.97;;;12.62;85.81
2000;BME280;1001;48.87406500;9.59633600;2023-02-18T09:45:29;95719.34;;;12.75;84.89
2000;BME280;1001;48.87406500;9.59633600;2023-02-18T09:47:56;95700.47;;;12.55;84.78
2000;BME280;1001;48.87406500;9.59633600;2023-02-18T09:50:28;95710.66;;;12.86;85.05
2000;BME280;1001;48.87406500;9.59633600;2023-02-18T09:52:59;95701.31;;;12.90;83.61
2000;BME280;1001;48.87406500;9.59633600;2023-02-18T09:55:28;95702.91;;;13.03;82.01
2000;BME280;1001;48.87406500;9.59633600;2023-02-18T09:57:58;95686.22;;;12.97;82.67
2000;BME280;1001;48.87406500;9.59633600;2023-02-18T10:00:30;95693.13;;;13.10;82.00
2000;BME280;1001;48.87406500;9.59633600;2023-02-18T10:03:01;95700.75;;;13.23;80.97
2000;BME280;1001;48.87406500;9.59633600;2023-02-18T10:05:30;95688.78;;;13.15;80.68
2000;BME280;1001;48.87406500;9.59633600;2023-02-18T10:08:01;95697.56;;;13.21;80.25
2000;BME280;1001;48.87406500;9.59633600;2023-02-18T10:10:35;95697.91;;;13.24;80.81
2000;BME280;1001;48.87406500;9.59633600;2023-02-18T10:13:04;95705.44;;;13.21;80.57
2000;BME280;1001;48.87406500;9.59633600;2023-02-18T10:15:32;95710.09;;;12.95;80.41
2000;BME280;1001;48.87406500;9.59633600;2023-02-18T10:18:00;95698.66;;;13.02;80.50
2000;BME280;1001;48.87406500;9.59633600;2023-02-18T10:20:29;95688.31;;;13.07;79.90
2000;BME280;1001;48.87406500;9.59633600;2023-02-18T10:22:59;95711.81;;;13.13;80.30
2000;BME280;1001;48.87406500;9.59633600;2023-02-18T10:25:27;95704.41;;;13.22;78.83
2000;BME280;1001;48.87406500;9.59633600;2023-02-18T10:27:55;95717.09;;;13.25;78.92
2000;BME280;1001;48.87406500;9.59633600;2023-02-18T10:30:29;95712.97;;;13.17;78.59
2000;BME280;1001;48.87406500;9.59633600;2023-02-18T10:33:00;95719.63;;;13.08;79.55
2000;BME280;1001;48.87406500;9.59633600;2023-02-18T10:35:37;95704.63;;;13.09;78.93
2000;BME280;1001;48.87406500;9.59633600;2023-02-18T10:38:12;95699.63;;;13.07;79.10
2000;BME280;1001;48.87406500;9.59633600;2023-02-18T10:40:53;95697.41;;;13.04;78.36
2000;BME280;1001;48.87406500;9.59633600;2023-02-18T10:43:26;95703.16;;;13.13;79.08
2000;BME280;1001;48.87406500;9.59633600;2023-02-18T10:46:04;95710.47;;;13.11;78.90
2000;BME280;1001;48.87406500;9.59633600;2023-02-18T10:48:49;95717.19;;;13.07;78.50
2000;BME280;1001;48.87406500;9.59633600;2023-02-18T10:51:21;95711.47;;;12.98;79.30
2000;BME280;1001;48.87406500;9.59633600;2023-02-18T10:53:52;95696.31;;;13.12;77.93
2000;BME280;1001;48.87406500;9.59633600;2023-02-18T10:56:32;95697.44;;;13.27;78.13
2000;BME280;1001;48.87406500;9.59633600;2023-02-18T10:59:04;95694.09;;;13.43;75.99
2000;BME280;1001;48.87406500;9.59633600;2023-02-18T11:01:35;95710.84;;;13.65;77.04
2000;BME280;1001;48.87406500;9.59633600;2023-02-18T11:04:09;95706.44;;;13.83;75.75
2000;BME280;1001;48.87406500;9.59633600;2023-02-18T11:06:40;95691.06;;;13.75;75.46
2000;BME280;1001;48.87406500;9.59633600;2023-02-18T11:09:23;95699.44;;;13.60;76.51
2000;BME280;1001;48.87406500;9.59633600;2023-02-18T11:11:58;95681.03;;;13.60;76.76
2000;BME280;1001;48.87406500;9.59633600;2023-02-18T11:14:36;95674.34;;;13.41;76.94
2000;BME280;1001;48.87406500;9.59633600;2023-02-18T11:17:09;95681.19;;;13.42;76.58
2000;BME280;1001;48.87406500;9.59633600;2023-02-18T11:19:37;95686.34;;;13.25;76.73
2000;BME280;1001;48.87406500;9.59633600;2023-02-18T11:22:14;95690.81;;;13.36;77.12
2000;BME280;1001;48.87406500;9.59633600;2023-02-18T11:24:45;95673.78;;;13.39;76.87
2000;BME280;1001;48.87406500;9.59633600;2023-02-18T11:27:21;95656.97;;;13.40;76.49
2000;BME280;1001;48.87406500;9.59633600;2023-02-18T11:29:51;95662.31;;;13.56;76.61
2000;BME280;1001;48.87406500;9.59633600;2023-02-18T11:32:19;95662.34;;;13.45;76.98
2000;BME280;1001;48.87406500;9.59633600;2023-02-18T11:34:48;95664.31;;;13.38;77.15
2000;BME280;1001;48.87406500;9.59633600;2023-02-18T11:37:17;95661.47;;;13.28;77.77
2000;BME280;1001;48.87406500;9.59633600;2023-02-18T11:39:49;95675.75;;;13.32;76.69
2000;BME280;1001;48.87406500;9.59633600;2023-02-18T11:42:19;95671.25;;;13.32;77.34
2000;BME280;1001;48.87406500;9.59633600;2023-02-18T11:44:51;95659.53;;;13.12;76.96
2000;BME280;1001;48.87406500;9.59633600;2023-02-18T11:47:22;95664.22;;;13.10;77.25
2000;BME280;1001;48.87406500;9.59633600;2023-02-18T11:50:02;95650.84;;;12.99;77.79
2000;BME280;1001;48.87406500;9.59633600;2023-02-18T11:52:33;95656.00;;;13.18;77.35
2000;BME280;1001;48.87406500;9.59633600;2023-02-18T11:55:05;95646.88;;;13.09;77.05
2000;BME280;1001;48.87406500;9.59633600;2023-02-18T11:57:34;95649.16;;;13.17;78.70
2000;BME280;1001;48.87406500;9.59633600;2023-02-18T12:00:05;95642.19;;;13.22;76.91
2000;BME280;1001;48.87406500;9.59633600;2023-02-18T12:02:40;95636.94;;;13.22;76.50